createdAt,value
2022-09-12T00:01:09.369Z,100.00
2022-09-12T00:03:36.768Z,100.00
2022-09-12T00:06:09.705Z,100.00
2022-09-12T00:08:38.538Z,100.00
2022-09-12T00:11:08.105Z,100.00
2022-09-12T00:13:39.529Z,100.00
2022-09-12T00:16:10.194Z,100.00
2022-09-12T00:18:36.940Z,100.00
2022-09-12T00:21:04.857Z,100.00
2022-09-12T00:23:34.833Z,100.00
2022-09-12T00:26:05.745Z,100.00
2022-09-12T00:28:35.694Z,100.00
2022-09-12T00:31:10.605Z,100.00
2022-09-12T00:33:37.230Z,100.00
2022-09-12T00:36:10.342Z,100.00
2022-09-12T00:38:40.533Z,100.00
2022-09-12T00:41:08.258Z,100.00
2022-09-12T00:43:52.136Z,100.00
2022-09-12T00:46:36.584Z,100.00
2022-09-12T00:49:05.390Z,100.00
2022-09-12T00:51:36.684Z,100.00
2022-09-12T00:54:10.671Z,100.00
2022-09-12T00:56:41.025Z,100.00
2022-09-12T00:59:16.660Z,100.00
2022-09-12T01:01:46.673Z,100.00
2022-09-12T01:04:13.756Z,100.00
2022-09-12T01:06:45.169Z,100.00
2022-09-12T01:09:17.066Z,100.00
2022-09-12T01:11:47.159Z,100.00
2022-09-12T01:14:16.857Z,100.00
2022-09-12T01:16:45.426Z,100.00
2022-09-12T01:19:44.194Z,100.00
2022-09-12T01:22:35.465Z,100.00
2022-09-12T01:25:19.826Z,100.00
2022-09-12T01:28:04.577Z,100.00
2022-09-12T01:30:55.650Z,100.00
2022-09-12T01:33:32.012Z,100.00
2022-09-12T01:36:29.789Z,100.00
2022-09-12T01:39:02.062Z,100.00
2022-09-12T01:41:56.401Z,100.00
2022-09-12T01:44:41.590Z,100.00
2022-09-12T01:47:25.773Z,100.00
2022-09-12T01:50:09.604Z,100.00
2022-09-12T01:52:46.528Z,100.00
2022-09-12T01:55:30.827Z,100.00
2022-09-12T01:58:20.752Z,100.00
2022-09-12T02:00:50.343Z,100.00
2022-09-12T02:03:21.447Z,100.00
2022-09-12T02:05:57.494Z,100.00
2022-09-12T02:08:37.996Z,100.00
2022-09-12T02:11:09.947Z,100.00
2022-09-12T02:13:43.194Z,100.00
2022-09-12T02:16:14.055Z,100.00
2022-09-12T02:18:47.225Z,100.00
2022-09-12T02:21:13.945Z,100.00
2022-09-12T02:23:48.376Z,100.00
2022-09-12T02:26:23.383Z,100.00
2022-09-12T02:28:52.265Z,100.00
2022-09-12T02:31:28.981Z,100.00
2022-09-12T02:34:16.474Z,100.00
2022-09-12T02:37:11.225Z,100.00
2022-09-12T02:39:44.510Z,100.00
2022-09-12T02:42:11.923Z,100.00
2022-09-12T02:44:38.686Z,100.00
2022-09-12T02:47:15.616Z,100.00
2022-09-12T02:49:42.164Z,100.00
2022-09-12T02:52:08.755Z,100.00
2022-09-12T02:54:39.602Z,100.00
2022-09-12T02:57:20.640Z,100.00
2022-09-12T02:59:54.145Z,100.00
2022-09-12T03:02:39.471Z,100.00
2022-09-12T03:05:27.231Z,100.00
2022-09-12T03:08:15.510Z,100.00
2022-09-12T03:11:06.331Z,100.00
2022-09-12T03:14:06.563Z,100.00
2022-09-12T03:16:53.823Z,100.00
2022-09-12T03:19:33.927Z,100.00
2022-09-12T03:22:21.780Z,100.00
2022-09-12T03:25:06.553Z,100.00
2022-09-12T03:27:48.289Z,100.00
2022-09-12T03:30:14.859Z,100.00
2022-09-12T03:32:52.594Z,100.00
2022-09-12T03:35:23.265Z,100.00
2022-09-12T03:37:50.937Z,100.00
2022-09-12T03:40:18.058Z,100.00
2022-09-12T03:42:44.582Z,100.00
2022-09-12T03:45:11.461Z,100.00
2022-09-12T03:47:39.794Z,100.00
2022-09-12T03:50:07.168Z,100.00
2022-09-12T03:52:33.684Z,100.00
2022-09-12T03:55:05.493Z,100.00
2022-09-12T03:57:32.077Z,100.00
2022-09-12T03:59:58.642Z,100.00
2022-09-12T04:02:25.270Z,100.00
2022-09-12T04:04:51.799Z,100.00
2022-09-12T04:07:21.725Z,100.00
2022-09-12T04:09:48.482Z,100.00
2022-09-12T04:12:15.166Z,100.00
2022-09-12T04:14:41.768Z,100.00
2022-09-12T04:17:10.220Z,100.00
2022-09-12T04:19:36.947Z,100.00
2022-09-12T04:22:03.864Z,100.00
2022-09-12T04:24:30.582Z,100.00
2022-09-12T04:26:57.442Z,100.00
2022-09-12T04:29:24.235Z,100.00
2022-09-12T04:32:01.305Z,100.00
2022-09-12T04:34:32.544Z,100.00
2022-09-12T04:36:59.100Z,100.00
2022-09-12T04:39:27.441Z,100.00
2022-09-12T04:41:54.378Z,100.00
2022-09-12T04:44:20.895Z,100.00
2022-09-12T04:46:49.523Z,100.00
2022-09-12T04:49:19.525Z,100.00
2022-09-12T04:51:46.588Z,100.00
2022-09-12T04:54:17.781Z,100.00
2022-09-12T04:56:47.297Z,100.00
2022-09-12T04:59:15.773Z,100.00
2022-09-12T05:01:48.956Z,100.00
2022-09-12T05:04:15.822Z,100.00
2022-09-12T05:06:43.456Z,100.00
2022-09-12T05:09:16.357Z,100.00
2022-09-12T05:14:33.242Z,100.00
2022-09-12T05:17:01.834Z,100.00
2022-09-12T05:19:30.293Z,100.00
2022-09-12T05:22:00.821Z,100.00
2022-09-12T05:24:27.435Z,100.00
2022-09-12T05:26:54.183Z,100.00
2022-09-12T05:29:20.815Z,100.00
2022-09-12T05:31:50.175Z,100.00
2022-09-12T05:34:19.945Z,100.00
2022-09-12T05:36:46.748Z,97.52
2022-09-12T05:39:13.607Z,95.65
2022-09-12T05:41:43.677Z,93.03
2022-09-12T05:44:14.444Z,90.88
2022-09-12T05:46:50.470Z,88.32
2022-09-12T05:49:17.168Z,88.56
2022-09-12T05:51:45.510Z,89.07
2022-09-12T05:54:14.335Z,89.40
2022-09-12T05:56:45.531Z,88.58
2022-09-12T05:59:20.597Z,87.48
2022-09-12T06:01:49.237Z,84.59
2022-09-12T06:04:16.363Z,84.93
2022-09-12T06:06:48.848Z,83.34
2022-09-12T06:09:18.408Z,82.57
2022-09-12T06:11:46.006Z,80.27
2022-09-12T06:14:15.018Z,81.45
2022-09-12T06:16:50.114Z,82.89
2022-09-12T06:19:18.918Z,81.78
2022-09-12T06:21:49.601Z,79.57
2022-09-12T06:24:17.647Z,80.41
2022-09-12T06:26:44.423Z,78.08
2022-09-12T06:29:14.069Z,77.00
2022-09-12T06:31:44.270Z,77.50
2022-09-12T06:34:14.311Z,76.63
2022-09-12T06:36:43.879Z,74.36
2022-09-12T06:39:13.703Z,74.89
2022-09-12T06:41:43.953Z,73.09
2022-09-12T06:44:16.758Z,73.54
2022-09-12T06:46:45.526Z,70.55
2022-09-12T06:49:12.315Z,71.33
2022-09-12T06:51:41.395Z,71.31
2022-09-12T06:54:07.921Z,69.53
2022-09-12T06:56:34.383Z,68.22
2022-09-12T06:59:01.067Z,68.63
2022-09-12T07:01:31.753Z,70.16
2022-09-12T07:04:00.990Z,68.45
2022-09-12T07:06:35.475Z,69.20
2022-09-12T07:09:06.528Z,67.56
2022-09-12T07:11:40.540Z,68.44
2022-09-12T07:14:12.068Z,66.54
2022-09-12T07:16:38.752Z,64.91
2022-09-12T07:19:07.670Z,65.73
2022-09-12T07:21:39.000Z,64.97
2022-09-12T07:24:06.337Z,63.88
2022-09-12T07:26:37.402Z,63.55
2022-09-12T07:29:32.363Z,65.09
2022-09-12T07:31:59.741Z,64.30
2022-09-12T07:34:29.690Z,60.91
2022-09-12T07:36:56.566Z,63.86
2022-09-12T07:39:24.409Z,66.17
2022-09-12T07:41:51.404Z,66.48
2022-09-12T07:44:17.843Z,64.87
2022-09-12T07:46:46.600Z,66.62
2022-09-12T07:49:13.469Z,66.44
2022-09-12T07:51:40.523Z,66.58
2022-09-12T07:54:16.882Z,65.82
2022-09-12T07:56:43.550Z,65.90
2022-09-12T07:59:10.264Z,65.66
2022-09-12T08:01:38.331Z,62.81
2022-09-12T08:04:05.260Z,63.97
2022-09-12T08:06:36.167Z,65.18
2022-09-12T08:09:03.686Z,62.42
2022-09-12T08:11:30.634Z,66.44
2022-09-12T08:13:58.288Z,62.77
2022-09-12T08:16:27.719Z,64.25
2022-09-12T08:21:22.968Z,63.08
2022-09-12T08:24:02.890Z,62.93
2022-09-12T08:26:30.629Z,62.34
2022-09-12T08:28:57.364Z,61.31
2022-09-12T08:31:28.668Z,63.18
2022-09-12T08:33:58.573Z,60.62
2022-09-12T08:36:27.736Z,58.17
2022-09-12T08:39:00.492Z,60.54
2022-09-12T08:41:44.404Z,59.41
2022-09-12T08:44:29.324Z,56.56
2022-09-12T08:47:14.739Z,55.84
2022-09-12T08:50:12.678Z,56.33
2022-09-12T08:53:02.886Z,56.38
2022-09-12T08:56:04.551Z,57.16
2022-09-12T08:58:39.542Z,57.71
2022-09-12T09:01:17.864Z,56.51
2022-09-12T09:03:48.449Z,57.78
2022-09-12T09:06:30.967Z,56.20
2022-09-12T09:09:04.987Z,56.03
2022-09-12T09:11:52.133Z,56.83
2022-09-12T09:14:49.040Z,55.87
2022-09-12T09:17:30.450Z,56.97
2022-09-12T09:20:28.780Z,57.39
2022-09-12T09:23:35.294Z,56.13
2022-09-12T09:26:27.358Z,55.90
2022-09-12T09:28:58.030Z,54.48
2022-09-12T09:31:26.321Z,53.76
2022-09-12T09:33:57.564Z,53.54
2022-09-12T09:36:36.358Z,55.98
2022-09-12T09:39:06.131Z,55.21
2022-09-12T09:42:00.532Z,54.03
2022-09-12T09:44:29.831Z,54.29
2022-09-12T09:46:59.036Z,54.41
2022-09-12T09:49:30.676Z,54.33
2022-09-12T09:52:00.970Z,52.80
2022-09-12T09:54:41.324Z,53.61
2022-09-12T09:57:37.919Z,51.54
2022-09-12T10:00:28.464Z,52.42
2022-09-12T10:03:13.376Z,52.68
2022-09-12T10:05:52.607Z,49.88
2022-09-12T10:08:30.278Z,49.46
2022-09-12T10:11:00.672Z,50.92
2022-09-12T10:13:43.219Z,48.64
2022-09-12T10:16:21.209Z,51.94
2022-09-12T10:18:49.370Z,51.46
2022-09-12T10:21:18.932Z,50.57
2022-09-12T10:23:48.067Z,50.58
2022-09-12T10:26:19.357Z,51.48
2022-09-12T10:28:53.826Z,50.59
2022-09-12T10:31:33.150Z,47.91
2022-09-12T10:34:02.724Z,50.72
2022-09-12T10:36:38.567Z,50.60
2022-09-12T10:39:06.962Z,50.55
2022-09-12T10:41:39.154Z,49.02
2022-09-12T10:44:10.435Z,49.29
2022-09-12T10:46:39.275Z,49.04
2022-09-12T10:49:27.217Z,47.37
2022-09-12T10:51:55.020Z,49.28
2022-09-12T10:54:25.206Z,49.94
2022-09-12T10:56:58.936Z,47.50
2022-09-12T10:59:51.653Z,46.55
2022-09-12T11:02:30.506Z,49.32
2022-09-12T11:05:18.356Z,47.64
2022-09-12T11:08:09.144Z,47.98
2022-09-12T11:10:59.892Z,47.18
2022-09-12T11:13:59.395Z,46.56
2022-09-12T11:16:49.071Z,45.24
2022-09-12T11:19:29.043Z,48.46
2022-09-12T11:22:31.950Z,46.37
2022-09-12T11:25:11.053Z,47.71
2022-09-12T11:28:04.527Z,46.82
2022-09-12T11:30:45.722Z,46.63
2022-09-12T11:33:32.827Z,44.98
2022-09-12T11:36:05.243Z,46.39
2022-09-12T11:38:50.846Z,44.83
2022-09-12T11:41:29.287Z,46.85
2022-09-12T11:43:58.991Z,45.07
2022-09-12T11:46:34.509Z,44.53
2022-09-12T11:49:11.852Z,47.81
2022-09-12T11:51:56.550Z,45.12
2022-09-12T11:54:28.852Z,45.84
2022-09-12T11:57:31.781Z,43.37
2022-09-12T12:00:05.464Z,44.36
2022-09-12T12:02:49.871Z,42.04
2022-09-12T12:05:26.385Z,43.71
2022-09-12T12:07:58.797Z,44.90
2022-09-12T12:10:44.132Z,40.50
2022-09-12T12:13:24.495Z,42.80
2022-09-12T12:15:59.138Z,43.34
2022-09-12T12:18:28.927Z,43.65
2022-09-12T12:20:56.897Z,43.67
2022-09-12T12:23:30.477Z,40.50
2022-09-12T12:26:00.011Z,43.21
2022-09-12T12:28:50.741Z,40.21
2022-09-12T12:31:18.317Z,43.44
2022-09-12T12:33:45.042Z,43.51
2022-09-12T12:36:35.307Z,39.65
2022-09-12T12:39:33.638Z,40.72
2022-09-12T12:42:01.166Z,43.20
2022-09-12T12:44:47.255Z,40.57
2022-09-12T12:47:27.525Z,41.01
2022-09-12T12:50:20.707Z,42.22
2022-09-12T12:52:57.869Z,43.25
2022-09-12T12:55:27.112Z,43.38
2022-09-12T12:57:56.862Z,42.29
2022-09-12T13:00:26.724Z,43.56
2022-09-12T13:03:08.236Z,41.98
2022-09-12T13:05:47.562Z,42.15
2022-09-12T13:08:16.714Z,42.52
2022-09-12T13:10:59.728Z,39.22
2022-09-12T13:13:35.992Z,40.41
2022-09-12T13:16:04.577Z,42.89
2022-09-12T13:18:44.746Z,41.02
2022-09-12T13:21:19.462Z,43.09
2022-09-12T13:24:02.124Z,42.26
2022-09-12T13:26:39.577Z,41.97
2022-09-12T13:29:15.092Z,41.11
2022-09-12T13:31:46.739Z,43.39
2022-09-12T13:34:22.257Z,42.11
2022-09-12T13:36:58.053Z,43.17
2022-09-12T13:39:29.934Z,41.59
2022-09-12T13:42:08.303Z,42.05
2022-09-12T13:44:57.885Z,40.70
2022-09-12T13:47:38.019Z,42.12
2022-09-12T13:50:07.506Z,43.20
2022-09-12T13:52:37.909Z,42.40
2022-09-12T13:55:27.471Z,40.92
2022-09-12T13:58:06.258Z,41.19
2022-09-12T14:00:36.822Z,42.44
2022-09-12T14:03:43.258Z,40.34
2022-09-12T14:06:12.297Z,36.97
2022-09-12T14:08:41.637Z,42.51
2022-09-12T14:11:11.048Z,41.83
2022-09-12T14:13:39.412Z,41.80
2022-09-12T14:16:09.890Z,41.72
2022-09-12T14:18:38.713Z,40.73
2022-09-12T14:21:31.041Z,39.73
2022-09-12T14:23:59.459Z,41.06
2022-09-12T14:26:27.771Z,40.59
2022-09-12T14:28:58.375Z,39.83
2022-09-12T14:31:30.391Z,39.52
2022-09-12T14:34:12.278Z,37.58
2022-09-12T14:36:44.694Z,37.99
2022-09-12T14:39:32.173Z,37.17
2022-09-12T14:42:06.680Z,37.53
2022-09-12T14:44:40.389Z,37.99
2022-09-12T14:47:20.568Z,36.65
2022-09-12T14:49:53.385Z,38.27
2022-09-12T14:52:27.737Z,37.32
2022-09-12T14:55:02.778Z,37.37
2022-09-12T14:57:39.695Z,37.71
2022-09-12T15:00:16.149Z,36.20
2022-09-12T15:02:43.559Z,37.51
2022-09-12T15:05:12.798Z,36.98
2022-09-12T15:07:43.507Z,37.39
2022-09-12T15:10:26.978Z,33.85
2022-09-12T15:13:08.588Z,34.17
2022-09-12T15:15:39.797Z,35.96
2022-09-12T15:18:08.365Z,35.51
2022-09-12T15:20:39.994Z,34.91
2022-09-12T15:23:12.110Z,35.70
2022-09-12T15:25:38.839Z,35.34
2022-09-12T15:28:25.748Z,33.11
2022-09-12T15:30:54.994Z,35.15
2022-09-12T15:33:24.167Z,35.61
2022-09-12T15:35:58.676Z,35.59
2022-09-12T15:38:26.667Z,36.86
2022-09-12T15:40:54.048Z,36.90
2022-09-12T15:43:23.583Z,37.46
2022-09-12T15:45:51.746Z,37.64
2022-09-12T15:48:19.399Z,37.70
2022-09-12T15:50:47.735Z,38.11
2022-09-12T15:53:16.493Z,38.35
2022-09-12T15:55:43.691Z,38.35
2022-09-12T15:58:10.526Z,38.32
2022-09-12T16:00:37.164Z,38.55
2022-09-12T16:03:04.085Z,38.63
2022-09-12T16:05:32.373Z,38.54
2022-09-12T16:07:58.911Z,38.88
2022-09-12T16:10:29.667Z,39.04
2022-09-12T16:12:58.161Z,39.36
2022-09-12T16:15:25.769Z,39.38
2022-09-12T16:17:52.806Z,39.84
2022-09-12T16:20:20.693Z,39.72
2022-09-12T16:22:47.453Z,39.98
2022-09-12T16:25:13.994Z,40.07
2022-09-12T16:27:43.352Z,40.05
2022-09-12T16:30:10.503Z,40.12
2022-09-12T16:32:37.124Z,40.23
2022-09-12T16:35:12.522Z,40.72
2022-09-12T16:37:39.177Z,41.12
2022-09-12T16:40:06.688Z,41.99
2022-09-12T16:42:35.153Z,42.57
2022-09-12T16:45:03.844Z,42.96
2022-09-12T16:47:32.269Z,42.81
2022-09-12T16:49:59.687Z,42.99
2022-09-12T16:52:26.175Z,43.25
2022-09-12T16:54:52.846Z,43.46
2022-09-12T16:57:19.704Z,43.61
2022-09-12T16:59:46.267Z,44.02
2022-09-12T17:02:15.670Z,44.45
2022-09-12T17:04:42.373Z,44.64
2022-09-12T17:07:09.121Z,45.03
2022-09-12T17:09:37.468Z,45.37
2022-09-12T17:12:06.559Z,45.97
2022-09-12T17:14:33.122Z,46.69
2022-09-12T17:16:59.676Z,47.57
2022-09-12T17:19:29.947Z,47.95
2022-09-12T17:21:57.672Z,49.00
2022-09-12T17:24:24.533Z,49.53
2022-09-12T17:26:54.326Z,50.04
2022-09-12T17:29:21.022Z,50.73
2022-09-12T17:31:51.985Z,50.90
2022-09-12T17:34:25.343Z,51.82
2022-09-12T17:36:53.984Z,52.14
2022-09-12T17:39:20.547Z,52.82
2022-09-12T17:41:47.442Z,53.46
2022-09-12T17:44:15.188Z,54.28
2022-09-12T17:46:42.138Z,54.60
2022-09-12T17:49:14.651Z,55.13
2022-09-12T17:51:42.075Z,55.46
2022-09-12T17:54:20.399Z,55.64
2022-09-12T17:56:49.801Z,56.26
2022-09-12T17:59:21.607Z,56.75
2022-09-12T18:02:06.626Z,57.18
2022-09-12T18:04:38.924Z,57.73
2022-09-12T18:07:06.015Z,58.67
2022-09-12T18:09:34.544Z,58.89
2022-09-12T18:12:01.170Z,59.24
2022-09-12T18:14:28.283Z,59.51
2022-09-12T18:16:59.308Z,59.57
2022-09-12T18:19:27.322Z,60.01
2022-09-12T18:21:55.088Z,60.40
2022-09-12T18:24:22.261Z,60.98
2022-09-12T18:26:49.119Z,61.31
2022-09-12T18:29:20.070Z,61.98
2022-09-12T18:31:48.623Z,63.61
2022-09-12T18:34:18.296Z,63.38
2022-09-12T18:36:47.780Z,63.27
2022-09-12T18:39:15.055Z,63.84
2022-09-12T18:41:42.239Z,64.29
2022-09-12T18:44:11.709Z,64.97
2022-09-12T18:46:40.445Z,65.31
2022-09-12T18:49:07.814Z,65.90
2022-09-12T18:51:37.238Z,66.51
2022-09-12T18:54:06.629Z,67.64
2022-09-12T18:56:36.003Z,68.27
2022-09-12T18:59:05.333Z,68.12
2022-09-12T19:01:36.371Z,68.68
2022-09-12T19:04:05.898Z,69.28
2022-09-12T19:06:35.314Z,69.45
2022-09-12T19:09:07.388Z,69.77
2022-09-12T19:11:36.176Z,69.83
2022-09-12T19:14:02.877Z,70.13
2022-09-12T19:16:29.757Z,70.28
2022-09-12T19:18:57.089Z,69.99
2022-09-12T19:21:31.556Z,70.37
2022-09-12T19:24:00.423Z,70.81
2022-09-12T19:26:27.020Z,71.24
2022-09-12T19:28:56.251Z,71.62
2022-09-12T19:31:23.556Z,72.13
2022-09-12T19:33:52.203Z,72.85
2022-09-12T19:36:44.515Z,73.71
2022-09-12T19:39:08.506Z,74.49
2022-09-12T19:41:36.047Z,74.35
2022-09-12T19:44:03.543Z,75.34
2022-09-12T19:46:30.100Z,75.31
2022-09-12T19:48:58.544Z,76.06
2022-09-12T19:51:25.303Z,76.58
2022-09-12T19:53:52.506Z,77.14
2022-09-12T19:56:20.046Z,77.56
2022-09-12T19:58:52.045Z,78.02
2022-09-12T20:01:31.684Z,78.83
2022-09-12T20:03:58.743Z,78.67
2022-09-12T20:06:26.562Z,78.89
2022-09-12T20:08:53.760Z,78.76
2022-09-12T20:11:22.083Z,79.97
2022-09-12T20:13:48.954Z,80.66
2022-09-12T20:16:22.655Z,81.54
2022-09-12T20:18:57.296Z,82.33
2022-09-12T20:21:31.201Z,83.10
2022-09-12T20:24:06.631Z,83.70
2022-09-12T20:26:35.117Z,83.76
2022-09-12T20:29:02.034Z,84.41
2022-09-12T20:31:28.733Z,84.92
2022-09-12T20:33:55.763Z,87.48
2022-09-12T20:36:22.910Z,87.49
2022-09-12T20:38:54.452Z,88.19
2022-09-12T20:41:21.454Z,87.49
2022-09-12T20:43:52.377Z,86.31
2022-09-12T20:46:22.069Z,88.57
2022-09-12T20:48:49.962Z,87.43
2022-09-12T20:51:16.833Z,87.79
2022-09-12T20:53:43.387Z,86.71
2022-09-12T20:56:10.077Z,87.61
2022-09-12T20:58:39.391Z,88.86
2022-09-12T21:01:11.440Z,88.36
2022-09-12T21:03:40.936Z,87.66
2022-09-12T21:06:09.292Z,87.74
2022-09-12T21:08:37.111Z,86.56
2022-09-12T21:11:04.505Z,86.48
2022-09-12T21:13:31.761Z,86.34
2022-09-12T21:16:06.298Z,86.45
2022-09-12T21:18:33.985Z,86.35
2022-09-12T21:21:00.973Z,86.64
2022-09-12T21:23:34.009Z,86.72
2022-09-12T21:26:01.428Z,87.83
2022-09-12T21:28:28.305Z,88.02
2022-09-12T21:30:54.981Z,87.77
2022-09-12T21:33:22.377Z,87.79
2022-09-12T21:35:49.805Z,88.02
2022-09-12T21:38:17.493Z,88.16
2022-09-12T21:40:44.331Z,88.61
2022-09-12T21:43:13.017Z,88.75
2022-09-12T21:45:42.339Z,88.50
2022-09-12T21:48:09.562Z,88.74
2022-09-12T21:50:36.063Z,88.59
2022-09-12T21:53:04.401Z,88.81
2022-09-12T21:55:31.191Z,89.08
2022-09-12T21:57:57.771Z,89.81
2022-09-12T22:00:29.433Z,90.25
2022-09-12T22:02:56.324Z,89.67
2022-09-12T22:05:24.681Z,90.95
2022-09-12T22:07:57.861Z,91.41
2022-09-12T22:10:25.089Z,90.67
2022-09-12T22:12:51.763Z,91.11
2022-09-12T22:15:41.426Z,91.54
2022-09-12T22:18:08.066Z,92.87
2022-09-12T22:20:43.081Z,91.60
2022-09-12T22:23:31.038Z,92.18
2022-09-12T22:26:03.306Z,90.82
2022-09-12T22:28:32.129Z,91.29
2022-09-12T22:30:59.713Z,91.78
2022-09-12T22:33:28.431Z,92.13
2022-09-12T22:35:54.951Z,91.02
2022-09-12T22:38:22.284Z,92.58
2022-09-12T22:40:50.495Z,92.10
2022-09-12T22:43:17.222Z,91.97
2022-09-12T22:45:43.724Z,91.79
2022-09-12T22:48:10.428Z,91.20
2022-09-12T22:50:36.918Z,91.37
2022-09-12T22:53:03.396Z,90.67
2022-09-12T22:55:34.523Z,90.54
2022-09-12T22:58:01.398Z,90.50
2022-09-12T23:00:28.086Z,90.27
2022-09-12T23:02:56.644Z,89.99
2022-09-12T23:05:23.373Z,89.38
2022-09-12T23:07:51.046Z,88.53
2022-09-12T23:10:19.431Z,88.45
2022-09-12T23:12:46.106Z,88.57
2022-09-12T23:15:12.606Z,88.45
2022-09-12T23:17:39.346Z,88.68
2022-09-12T23:20:08.412Z,89.39
2022-09-12T23:22:37.269Z,89.22
2022-09-12T23:25:06.375Z,89.46
2022-09-12T23:27:32.887Z,89.59
2022-09-12T23:29:59.378Z,88.90
2022-09-12T23:32:38.621Z,89.25
2022-09-12T23:35:06.060Z,89.89
2022-09-12T23:37:32.525Z,89.20
2022-09-12T23:39:59.192Z,89.69
2022-09-12T23:42:25.723Z,89.80
2022-09-12T23:44:52.201Z,90.57
2022-09-12T23:47:23.185Z,89.53
2022-09-12T23:49:49.663Z,90.75
2022-09-12T23:52:16.197Z,90.65
2022-09-12T23:54:44.399Z,90.78
2022-09-12T23:57:11.109Z,91.46
2022-09-12T23:59:37.883Z,91.40
